createdAt,value
2023-09-29T00:01:46.193Z,58.90
2023-09-29T00:04:13.396Z,59.90
2023-09-29T00:06:40.568Z,58.30
2023-09-29T00:09:07.949Z,60.58
2023-09-29T00:11:35.649Z,59.64
2023-09-29T00:14:05.423Z,59.88
2023-09-29T00:16:32.587Z,61.53
2023-09-29T00:18:59.743Z,63.94
2023-09-29T00:21:26.901Z,65.52
2023-09-29T00:23:54.003Z,65.73
2023-09-29T00:26:21.793Z,66.45
2023-09-29T00:28:49.284Z,66.83
2023-09-29T00:31:19.256Z,66.90
2023-09-29T00:33:46.386Z,67.17
2023-09-29T00:36:13.491Z,66.75
2023-09-29T00:38:41.062Z,66.28
2023-09-29T00:41:09.738Z,65.36
2023-09-29T00:43:37.054Z,65.63
2023-09-29T00:46:07.915Z,66.46
2023-09-29T00:48:39.389Z,66.62
2023-09-29T00:53:35.493Z,66.94
2023-09-29T00:56:03.639Z,66.67
2023-09-29T00:58:31.802Z,67.08
2023-09-29T01:00:59.974Z,65.09
2023-09-29T01:03:27.365Z,66.20
2023-09-29T01:05:55.366Z,66.45
2023-09-29T01:08:25.200Z,66.18
2023-09-29T01:10:56.460Z,65.25
2023-09-29T01:13:23.897Z,66.68
2023-09-29T01:15:51.204Z,67.12
2023-09-29T01:18:18.519Z,67.27
2023-09-29T01:20:45.845Z,66.01
2023-09-29T01:23:13.126Z,66.01
2023-09-29T01:25:41.395Z,65.65
2023-09-29T01:28:10.390Z,65.39
2023-09-29T01:30:38.557Z,65.46
2023-09-29T01:33:06.188Z,65.95
2023-09-29T01:35:34.100Z,65.43
2023-09-29T01:38:01.659Z,64.74
2023-09-29T01:40:30.549Z,63.90
2023-09-29T01:42:58.900Z,63.95
2023-09-29T01:45:27.807Z,64.14
2023-09-29T01:47:56.187Z,63.45
2023-09-29T01:50:24.405Z,62.08
2023-09-29T01:52:52.796Z,62.05
2023-09-29T01:55:22.058Z,62.73
2023-09-29T01:57:52.361Z,63.37
2023-09-29T02:00:20.896Z,64.96
2023-09-29T02:02:49.682Z,65.02
2023-09-29T02:05:17.991Z,64.99
2023-09-29T02:07:46.890Z,61.99
2023-09-29T02:10:20.090Z,63.21
2023-09-29T02:12:58.517Z,65.01
2023-09-29T02:15:28.065Z,65.07
2023-09-29T02:17:55.717Z,63.69
2023-09-29T02:20:27.104Z,62.88
2023-09-29T02:22:56.466Z,62.59
2023-09-29T02:25:30.807Z,63.89
2023-09-29T02:28:00.827Z,64.80
2023-09-29T02:30:30.113Z,65.87
2023-09-29T02:32:57.999Z,66.70
2023-09-29T02:35:25.910Z,66.71
2023-09-29T02:37:54.131Z,67.19
2023-09-29T02:40:23.529Z,65.81
2023-09-29T02:42:51.459Z,65.10
2023-09-29T02:45:18.628Z,63.13
2023-09-29T02:47:48.273Z,63.62
2023-09-29T02:50:16.349Z,65.25
2023-09-29T02:52:43.818Z,65.80
2023-09-29T02:55:16.457Z,67.21
2023-09-29T02:57:45.396Z,66.92
2023-09-29T03:00:19.959Z,66.64
2023-09-29T03:02:47.957Z,65.96
2023-09-29T03:05:16.948Z,66.36
2023-09-29T03:07:44.584Z,68.44
2023-09-29T03:10:17.024Z,67.84
2023-09-29T03:12:46.355Z,68.32
2023-09-29T03:15:17.997Z,66.99
2023-09-29T03:17:47.469Z,67.88
2023-09-29T03:20:16.332Z,66.99
2023-09-29T03:22:46.749Z,65.34
2023-09-29T03:25:18.527Z,65.82
2023-09-29T03:27:46.672Z,64.98
2023-09-29T03:30:14.931Z,63.82
2023-09-29T03:32:43.826Z,64.84
2023-09-29T03:35:11.519Z,65.12
2023-09-29T03:37:40.601Z,65.14
2023-09-29T03:40:10.659Z,63.84
2023-09-29T03:42:42.438Z,64.82
2023-09-29T03:45:13.277Z,64.57
2023-09-29T03:47:41.421Z,64.12
2023-09-29T03:50:12.294Z,62.70
2023-09-29T03:52:40.538Z,62.73
2023-09-29T03:55:10.794Z,62.59
2023-09-29T03:57:39.488Z,62.29
2023-09-29T04:00:15.096Z,63.05
2023-09-29T04:02:43.155Z,65.14
2023-09-29T04:05:11.743Z,63.02
2023-09-29T04:07:41.032Z,64.16
2023-09-29T04:10:13.868Z,63.63
2023-09-29T04:12:46.200Z,63.59
2023-09-29T04:15:13.890Z,62.44
2023-09-29T04:17:41.838Z,62.91
2023-09-29T04:20:10.261Z,62.62
2023-09-29T04:22:39.834Z,61.69
2023-09-29T04:25:11.517Z,61.75
2023-09-29T04:27:40.612Z,61.93
2023-09-29T04:30:10.256Z,63.89
2023-09-29T04:32:37.743Z,64.32
2023-09-29T04:35:09.521Z,64.00
2023-09-29T04:37:37.833Z,66.13
2023-09-29T04:40:05.889Z,67.34
2023-09-29T04:42:34.305Z,66.96
2023-09-29T04:45:04.765Z,64.90
2023-09-29T04:47:32.369Z,65.54
2023-09-29T04:49:59.897Z,65.93
2023-09-29T04:52:27.876Z,66.23
2023-09-29T04:54:57.597Z,67.71
2023-09-29T04:57:24.808Z,67.12
2023-09-29T04:59:52.115Z,67.61
2023-09-29T05:02:19.257Z,68.64
2023-09-29T05:04:46.445Z,67.29
2023-09-29T05:07:13.553Z,68.21
2023-09-29T05:09:41.150Z,67.37
2023-09-29T05:12:08.413Z,68.51
2023-09-29T05:14:35.716Z,68.10
2023-09-29T05:17:02.978Z,67.85
2023-09-29T05:19:30.168Z,67.00
2023-09-29T05:21:57.284Z,67.19
2023-09-29T05:24:24.434Z,64.60
2023-09-29T05:26:51.578Z,66.16
2023-09-29T05:29:18.710Z,67.88
2023-09-29T05:31:49.983Z,65.33
2023-09-29T05:34:17.889Z,66.38
2023-09-29T05:36:46.342Z,64.70
2023-09-29T05:39:13.973Z,63.36
2023-09-29T05:41:41.235Z,65.14
2023-09-29T05:44:09.730Z,64.50
2023-09-29T05:46:37.059Z,64.33
2023-09-29T05:49:04.257Z,64.81
2023-09-29T05:51:31.344Z,66.44
2023-09-29T05:53:59.780Z,64.13
2023-09-29T05:56:27.628Z,62.18
2023-09-29T05:58:54.883Z,60.58
2023-09-29T06:01:23.409Z,60.85
2023-09-29T06:03:51.428Z,61.66
2023-09-29T06:06:19.620Z,60.10
2023-09-29T06:08:55.121Z,59.49
2023-09-29T06:11:23.520Z,59.59
2023-09-29T06:13:51.068Z,59.49
2023-09-29T06:16:18.541Z,59.46
2023-09-29T06:18:46.510Z,59.08
2023-09-29T06:21:14.546Z,59.62
2023-09-29T06:23:42.505Z,60.06
2023-09-29T06:26:09.859Z,58.90
2023-09-29T06:28:39.563Z,59.03
2023-09-29T06:31:07.302Z,56.21
2023-09-29T06:33:34.731Z,56.54
2023-09-29T06:36:02.153Z,56.92
2023-09-29T06:38:30.837Z,57.75
2023-09-29T06:40:59.699Z,55.66
2023-09-29T06:43:26.995Z,56.29
2023-09-29T06:46:01.439Z,58.89
2023-09-29T06:48:30.280Z,55.31
2023-09-29T06:51:01.051Z,56.76
2023-09-29T06:53:30.049Z,56.26
2023-09-29T06:55:59.138Z,54.56
2023-09-29T06:58:26.756Z,54.68
2023-09-29T07:00:57.375Z,53.99
2023-09-29T07:03:34.463Z,54.44
2023-09-29T07:06:02.651Z,53.76
2023-09-29T07:08:30.330Z,53.74
2023-09-29T07:10:58.037Z,53.29
2023-09-29T07:13:25.302Z,52.81
2023-09-29T07:15:52.955Z,52.56
2023-09-29T07:18:20.237Z,52.76
2023-09-29T07:20:51.679Z,51.94
2023-09-29T07:23:23.802Z,51.48
2023-09-29T07:25:54.519Z,51.15
2023-09-29T07:28:24.205Z,50.92
2023-09-29T07:30:54.459Z,50.21
2023-09-29T07:33:21.969Z,50.91
2023-09-29T07:35:49.254Z,50.04
2023-09-29T07:38:19.467Z,49.74
2023-09-29T07:40:47.525Z,49.52
2023-09-29T07:43:14.886Z,49.07
2023-09-29T07:45:42.054Z,47.53
2023-09-29T07:48:09.263Z,48.22
2023-09-29T07:50:36.510Z,49.15
2023-09-29T07:53:06.166Z,49.62
2023-09-29T07:55:33.372Z,48.69
2023-09-29T07:58:00.529Z,48.14
2023-09-29T08:00:27.684Z,47.85
2023-09-29T08:02:55.229Z,47.64
2023-09-29T08:05:22.577Z,47.75
2023-09-29T08:07:52.931Z,46.70
2023-09-29T08:10:20.131Z,46.71
2023-09-29T08:12:47.357Z,46.25
2023-09-29T08:15:15.955Z,45.81
2023-09-29T08:17:44.881Z,45.37
2023-09-29T08:20:13.967Z,45.71
2023-09-29T08:22:43.091Z,45.29
2023-09-29T08:25:12.463Z,44.91
2023-09-29T08:27:40.279Z,44.86
2023-09-29T08:30:09.280Z,44.70
2023-09-29T08:32:38.876Z,45.13
2023-09-29T08:35:07.047Z,44.14
2023-09-29T08:37:34.456Z,45.17
2023-09-29T08:40:01.682Z,44.80
2023-09-29T08:42:38.220Z,44.71
2023-09-29T08:45:15.021Z,44.19
2023-09-29T08:47:42.945Z,44.34
2023-09-29T08:50:12.321Z,44.42
2023-09-29T08:52:46.131Z,43.87
2023-09-29T08:55:14.909Z,43.79
2023-09-29T08:57:46.192Z,43.81
2023-09-29T09:00:15.302Z,43.41
2023-09-29T09:02:44.971Z,43.53
2023-09-29T09:05:14.415Z,43.21
2023-09-29T09:07:43.210Z,43.70
2023-09-29T09:10:26.918Z,44.02
2023-09-29T09:13:00.926Z,43.75
2023-09-29T09:15:29.540Z,44.29
2023-09-29T09:17:57.929Z,43.85
2023-09-29T09:20:26.062Z,43.65
2023-09-29T09:23:04.341Z,43.46
2023-09-29T09:25:44.302Z,43.12
2023-09-29T09:28:23.397Z,43.76
2023-09-29T09:31:04.840Z,43.07
2023-09-29T09:33:32.607Z,43.80
2023-09-29T09:36:12.273Z,43.65
2023-09-29T09:38:40.423Z,44.42
2023-09-29T09:41:09.212Z,43.44
2023-09-29T09:43:36.645Z,43.62
2023-09-29T09:46:06.401Z,43.45
2023-09-29T09:49:11.796Z,43.56
2023-09-29T09:51:48.569Z,45.06
2023-09-29T09:54:29.463Z,44.48
2023-09-29T09:57:10.493Z,43.54
2023-09-29T09:59:38.665Z,43.88
2023-09-29T10:02:08.627Z,43.11
2023-09-29T10:04:39.677Z,43.65
2023-09-29T10:07:08.284Z,42.93
2023-09-29T10:09:47.669Z,43.35
2023-09-29T10:12:32.600Z,42.98
2023-09-29T10:15:00.911Z,43.01
2023-09-29T10:17:42.851Z,42.79
2023-09-29T10:20:27.968Z,41.46
2023-09-29T10:23:16.464Z,41.97
2023-09-29T10:26:00.292Z,41.74
2023-09-29T10:28:44.487Z,42.23
2023-09-29T10:31:18.535Z,42.71
2023-09-29T10:33:55.317Z,43.01
2023-09-29T10:36:31.312Z,42.56
2023-09-29T10:39:01.154Z,42.41
2023-09-29T10:41:36.349Z,42.35
2023-09-29T10:44:05.748Z,41.51
2023-09-29T10:46:34.714Z,43.60
2023-09-29T10:49:02.504Z,43.13
2023-09-29T10:51:32.689Z,42.55
2023-09-29T10:54:09.206Z,42.86
2023-09-29T10:56:38.912Z,41.49
2023-09-29T10:59:09.217Z,40.54
2023-09-29T11:01:37.016Z,40.82
2023-09-29T11:04:10.779Z,40.23
2023-09-29T11:06:48.076Z,40.23
2023-09-29T11:09:23.143Z,40.50
2023-09-29T11:11:50.577Z,40.29
2023-09-29T11:14:18.886Z,41.31
2023-09-29T11:16:58.500Z,40.84
2023-09-29T11:19:29.151Z,42.33
2023-09-29T11:21:56.538Z,42.64
2023-09-29T11:24:24.505Z,42.74
2023-09-29T11:26:56.591Z,44.40
2023-09-29T11:29:29.485Z,43.73
2023-09-29T11:31:56.923Z,43.56
2023-09-29T11:34:24.582Z,42.66
2023-09-29T11:36:53.085Z,42.62
2023-09-29T11:39:22.319Z,42.25
2023-09-29T11:41:50.400Z,41.90
2023-09-29T11:44:18.386Z,41.76
2023-09-29T11:46:46.965Z,41.19
2023-09-29T11:49:14.172Z,43.28
2023-09-29T11:51:41.535Z,41.88
2023-09-29T11:54:09.033Z,41.91
2023-09-29T11:56:36.718Z,42.02
2023-09-29T11:59:04.231Z,43.19
2023-09-29T12:01:31.700Z,42.66
2023-09-29T12:03:59.845Z,42.09
2023-09-29T12:06:27.996Z,42.29
2023-09-29T12:08:55.233Z,43.58
2023-09-29T12:11:22.627Z,41.83
2023-09-29T12:13:50.281Z,40.49
2023-09-29T12:16:17.763Z,41.88
2023-09-29T12:18:45.083Z,40.92
2023-09-29T12:21:13.877Z,41.64
2023-09-29T12:23:41.748Z,40.80
2023-09-29T12:26:10.207Z,41.56
2023-09-29T12:28:38.238Z,43.14
2023-09-29T12:31:18.331Z,41.98
2023-09-29T12:33:48.496Z,43.37
2023-09-29T12:36:16.074Z,43.17
2023-09-29T12:38:44.524Z,43.53
2023-09-29T12:41:14.817Z,45.39
2023-09-29T12:43:44.818Z,45.33
2023-09-29T12:46:12.056Z,44.13
2023-09-29T12:48:39.891Z,45.61
2023-09-29T12:51:07.193Z,46.75
2023-09-29T12:53:34.340Z,45.94
2023-09-29T12:56:02.644Z,46.59
2023-09-29T12:58:30.143Z,45.16
2023-09-29T13:00:57.793Z,45.40
2023-09-29T13:03:25.343Z,45.09
2023-09-29T13:06:01.558Z,44.21
2023-09-29T13:08:28.921Z,44.71
2023-09-29T13:10:56.776Z,47.14
2023-09-29T13:13:25.729Z,48.19
2023-09-29T13:15:53.697Z,47.59
2023-09-29T13:18:24.072Z,48.16
2023-09-29T13:20:51.350Z,48.59
2023-09-29T13:23:29.024Z,47.43
2023-09-29T13:25:56.101Z,48.47
2023-09-29T13:28:23.544Z,49.03
2023-09-29T13:30:54.694Z,48.63
2023-09-29T13:33:28.301Z,48.54
2023-09-29T13:35:58.242Z,49.21
2023-09-29T13:38:25.689Z,48.66
2023-09-29T13:40:56.338Z,49.15
2023-09-29T13:43:27.078Z,50.25
2023-09-29T13:45:54.359Z,48.88
2023-09-29T13:48:23.588Z,49.45
2023-09-29T13:50:53.996Z,49.09
2023-09-29T13:53:22.317Z,47.65
2023-09-29T13:55:51.397Z,46.92
2023-09-29T13:58:18.868Z,45.53
2023-09-29T14:00:51.407Z,46.53
2023-09-29T14:03:19.852Z,46.03
2023-09-29T14:05:47.576Z,47.60
2023-09-29T14:08:14.873Z,46.81
2023-09-29T14:10:42.148Z,48.54
2023-09-29T14:13:19.384Z,49.04
2023-09-29T14:15:46.742Z,48.50
2023-09-29T14:18:14.268Z,47.40
2023-09-29T14:20:41.533Z,48.57
2023-09-29T14:23:08.712Z,48.13
2023-09-29T14:25:36.453Z,46.97
2023-09-29T14:28:05.658Z,46.31
2023-09-29T14:30:33.263Z,47.92
2023-09-29T14:33:05.806Z,47.58
2023-09-29T14:35:46.502Z,47.42
2023-09-29T14:38:17.701Z,46.36
2023-09-29T14:40:45.208Z,48.04
2023-09-29T14:43:12.489Z,47.72
2023-09-29T14:45:39.869Z,47.61
2023-09-29T14:48:08.392Z,46.74
2023-09-29T14:50:40.601Z,47.97
2023-09-29T14:53:11.611Z,48.14
2023-09-29T14:55:41.795Z,47.14
2023-09-29T14:58:09.227Z,47.86
2023-09-29T15:00:41.199Z,49.50
2023-09-29T15:03:08.513Z,48.08
2023-09-29T15:05:36.664Z,48.20
2023-09-29T15:08:05.178Z,47.45
2023-09-29T15:10:32.303Z,47.31
2023-09-29T15:13:01.633Z,49.17
2023-09-29T15:15:29.355Z,50.12
2023-09-29T15:17:57.387Z,49.69
2023-09-29T15:20:24.694Z,48.54
2023-09-29T15:22:52.291Z,48.74
2023-09-29T15:25:19.721Z,51.30
2023-09-29T15:27:49.591Z,50.42
2023-09-29T15:30:16.816Z,51.35
2023-09-29T15:32:44.000Z,50.93
2023-09-29T15:35:12.855Z,49.58
2023-09-29T15:37:40.143Z,49.34
2023-09-29T15:40:08.435Z,48.90
2023-09-29T15:42:35.527Z,49.97
2023-09-29T15:45:03.667Z,49.99
2023-09-29T15:47:30.861Z,50.37
2023-09-29T15:49:58.186Z,50.08
2023-09-29T15:52:25.385Z,50.04
2023-09-29T15:54:52.746Z,50.05
2023-09-29T15:57:19.831Z,48.55
2023-09-29T15:59:47.510Z,48.35
2023-09-29T16:02:25.298Z,49.69
2023-09-29T16:04:54.776Z,48.20
2023-09-29T16:07:22.409Z,49.61
2023-09-29T16:09:49.663Z,50.16
2023-09-29T16:12:16.980Z,50.00
2023-09-29T16:14:44.155Z,49.97
2023-09-29T16:17:11.372Z,50.76
2023-09-29T16:19:38.881Z,51.70
2023-09-29T16:22:07.139Z,50.45
2023-09-29T16:24:34.354Z,50.55
2023-09-29T16:27:01.622Z,52.05
2023-09-29T16:29:30.402Z,52.00
2023-09-29T16:31:58.089Z,51.82
2023-09-29T16:34:25.295Z,51.82
2023-09-29T16:36:52.430Z,52.85
2023-09-29T16:39:19.716Z,53.11
2023-09-29T16:41:47.543Z,52.81
2023-09-29T16:44:14.775Z,53.39
2023-09-29T16:46:42.478Z,53.27
2023-09-29T16:49:09.631Z,52.91
2023-09-29T16:51:36.796Z,53.25
2023-09-29T16:54:04.119Z,53.82
2023-09-29T16:56:31.258Z,54.79
2023-09-29T16:58:58.479Z,54.34
2023-09-29T17:01:26.367Z,54.47
2023-09-29T17:03:53.855Z,52.93
2023-09-29T17:06:25.138Z,54.19
2023-09-29T17:08:52.323Z,53.48
2023-09-29T17:11:20.243Z,52.50
2023-09-29T17:13:48.573Z,53.66
2023-09-29T17:16:16.199Z,52.78
2023-09-29T17:18:44.175Z,52.56
2023-09-29T17:21:17.989Z,52.61
2023-09-29T17:23:46.438Z,52.75
2023-09-29T17:26:15.548Z,53.88
2023-09-29T17:28:42.685Z,53.78
2023-09-29T17:31:09.952Z,53.61
2023-09-29T17:33:37.157Z,53.86
2023-09-29T17:36:07.190Z,53.96
2023-09-29T17:38:39.508Z,54.88
2023-09-29T17:41:09.316Z,54.28
2023-09-29T17:43:36.445Z,53.28
2023-09-29T17:46:06.121Z,53.21
2023-09-29T17:48:42.160Z,53.50
2023-09-29T17:51:16.964Z,53.89
2023-09-29T17:53:46.258Z,53.40
2023-09-29T17:56:14.135Z,53.01
2023-09-29T17:58:42.200Z,52.17
2023-09-29T18:01:12.791Z,51.79
2023-09-29T18:03:42.221Z,51.03
2023-09-29T18:06:11.501Z,52.11
2023-09-29T18:08:38.810Z,52.52
2023-09-29T18:11:05.915Z,52.69
2023-09-29T18:13:34.864Z,53.71
2023-09-29T18:16:01.978Z,53.79
2023-09-29T18:18:29.513Z,53.54
2023-09-29T18:21:00.950Z,54.43
2023-09-29T18:23:30.870Z,55.35
2023-09-29T18:25:58.047Z,54.66
2023-09-29T18:28:25.621Z,54.18
2023-09-29T18:30:52.896Z,54.42
2023-09-29T18:33:20.123Z,55.73
2023-09-29T18:35:47.295Z,54.84
2023-09-29T18:38:14.421Z,54.63
2023-09-29T18:40:41.845Z,54.44
2023-09-29T18:43:09.278Z,54.44
2023-09-29T18:45:37.693Z,54.63
2023-09-29T18:48:05.355Z,54.88
2023-09-29T18:50:36.276Z,55.02
2023-09-29T18:53:03.611Z,56.42
2023-09-29T18:55:31.204Z,57.02
2023-09-29T18:57:58.481Z,57.53
2023-09-29T19:00:26.842Z,56.48
2023-09-29T19:02:55.235Z,57.05
2023-09-29T19:05:22.860Z,55.71
2023-09-29T19:07:50.136Z,54.69
2023-09-29T19:10:18.299Z,54.59
2023-09-29T19:12:45.540Z,54.85
2023-09-29T19:15:12.883Z,54.15
2023-09-29T19:17:40.279Z,54.69
2023-09-29T19:20:08.863Z,55.85
2023-09-29T19:22:38.685Z,54.24
2023-09-29T19:25:06.269Z,55.03
2023-09-29T19:27:33.426Z,55.82
2023-09-29T19:30:04.528Z,54.49
2023-09-29T19:32:31.901Z,53.53
2023-09-29T19:34:59.341Z,52.54
2023-09-29T19:37:27.610Z,54.01
2023-09-29T19:39:58.125Z,53.11
2023-09-29T19:42:25.368Z,53.20
2023-09-29T19:44:55.185Z,52.00
2023-09-29T19:47:22.598Z,51.59
2023-09-29T19:49:50.298Z,51.53
2023-09-29T19:52:18.860Z,55.39
2023-09-29T19:54:46.100Z,55.29
2023-09-29T19:57:13.356Z,55.79
2023-09-29T19:59:40.627Z,54.34
2023-09-29T20:02:07.806Z,51.36
2023-09-29T20:04:35.002Z,54.02
2023-09-29T20:07:02.171Z,54.15
2023-09-29T20:09:29.848Z,51.76
2023-09-29T20:11:57.719Z,53.63
2023-09-29T20:14:25.244Z,52.74
2023-09-29T20:16:52.974Z,52.26
2023-09-29T20:19:20.492Z,54.57
2023-09-29T20:21:47.656Z,54.24
2023-09-29T20:24:14.885Z,55.04
2023-09-29T20:26:42.151Z,53.92
2023-09-29T20:29:09.890Z,54.05
2023-09-29T20:31:37.175Z,55.02
2023-09-29T20:34:05.543Z,54.66
2023-09-29T20:36:32.812Z,56.96
2023-09-29T20:39:06.101Z,55.10
2023-09-29T20:41:33.801Z,56.14
2023-09-29T20:44:01.327Z,57.23
2023-09-29T20:46:28.541Z,57.24
2023-09-29T20:48:55.836Z,56.85
2023-09-29T20:51:23.112Z,56.21
2023-09-29T20:53:50.264Z,56.12
2023-09-29T20:56:19.303Z,57.09
2023-09-29T20:58:46.499Z,56.58
2023-09-29T21:01:13.703Z,57.35
2023-09-29T21:03:40.981Z,55.90
2023-09-29T21:06:08.319Z,56.43
2023-09-29T21:08:35.718Z,56.84
2023-09-29T21:11:03.096Z,57.34
2023-09-29T21:13:30.409Z,56.58
2023-09-29T21:15:57.638Z,56.66
2023-09-29T21:18:24.970Z,57.73
2023-09-29T21:20:56.860Z,58.90
2023-09-29T21:23:23.976Z,57.77
2023-09-29T21:25:51.259Z,58.60
2023-09-29T21:28:18.686Z,57.37
2023-09-29T21:30:46.171Z,59.33
2023-09-29T21:33:13.643Z,58.47
2023-09-29T21:35:41.007Z,59.42
2023-09-29T21:38:08.256Z,59.18
2023-09-29T21:40:35.498Z,56.65
2023-09-29T21:43:02.813Z,57.23
2023-09-29T21:45:30.223Z,56.65
2023-09-29T21:47:57.525Z,59.06
2023-09-29T21:50:24.831Z,58.79
2023-09-29T21:52:51.929Z,57.95
2023-09-29T21:55:19.082Z,58.63
2023-09-29T21:57:46.166Z,60.87
2023-09-29T22:00:18.870Z,60.60
2023-09-29T22:02:47.123Z,60.94
2023-09-29T22:05:21.098Z,60.78
2023-09-29T22:07:50.017Z,59.15
2023-09-29T22:10:17.289Z,56.78
2023-09-29T22:12:46.433Z,58.26
2023-09-29T22:15:16.489Z,58.42
2023-09-29T22:17:44.961Z,59.67
2023-09-29T22:20:13.199Z,59.18
2023-09-29T22:22:40.325Z,60.29
2023-09-29T22:25:09.164Z,59.59
2023-09-29T22:27:39.001Z,59.08
2023-09-29T22:30:07.338Z,58.12
2023-09-29T22:32:34.649Z,57.73
2023-09-29T22:35:01.929Z,59.43
2023-09-29T22:37:29.298Z,60.17
2023-09-29T22:39:56.817Z,60.86
2023-09-29T22:42:26.187Z,60.24
2023-09-29T22:44:54.662Z,64.59
2023-09-29T22:47:21.793Z,63.11
2023-09-29T22:49:49.485Z,63.30
2023-09-29T22:52:16.659Z,62.04
2023-09-29T22:54:45.062Z,60.05
2023-09-29T22:57:12.339Z,62.14
2023-09-29T22:59:40.004Z,62.10
2023-09-29T23:02:07.181Z,64.19
2023-09-29T23:04:34.597Z,66.58
2023-09-29T23:07:02.791Z,66.91
2023-09-29T23:09:30.013Z,66.17
2023-09-29T23:11:59.161Z,67.16
2023-09-29T23:14:27.485Z,67.70
2023-09-29T23:16:55.338Z,68.46
2023-09-29T23:19:22.661Z,67.43
2023-09-29T23:21:51.658Z,67.85
2023-09-29T23:24:20.583Z,66.60
2023-09-29T23:26:49.315Z,66.28
2023-09-29T23:29:16.780Z,64.55
2023-09-29T23:31:44.580Z,65.04
2023-09-29T23:34:13.516Z,65.13
2023-09-29T23:36:40.734Z,64.11
2023-09-29T23:39:11.826Z,64.12
2023-09-29T23:41:41.006Z,64.57
2023-09-29T23:44:08.969Z,64.22
2023-09-29T23:46:38.539Z,62.36
2023-09-29T23:49:09.031Z,63.66
2023-09-29T23:51:36.517Z,63.56
2023-09-29T23:54:04.805Z,64.25
2023-09-29T23:56:32.199Z,65.06
2023-09-29T23:59:02.004Z,63.16
